Lutz, Florida
Current Conditions -  °F | °C
As of 4:55 PM on Thursday 27 Nov 2014 (Local Time) from KVDF Reporting Station
Clear Clear  
Wind Chill: 63°   Ceiling: Unl
Heat Index: 63°   Visibility: 10mi
Dew Point: 30°   Wind: 7mph
Humidity: 30%   Direction: 320°NW
Pressure: 30.22"   Gusts: NA
Location:  28.15°N, 82.46°W
Report Text: KVDF 272155Z AUTO 32006KT 10SM CLR 17/M01 A3022 RMK AO2
Loading
Personal Weather Stations






























Interactive Weather Map New forecast layout! Learn more

10-Day Weather Forecast

Advertisements
Track Severe Weather on mobile